Los Angeles, CA

8:01 PM PDT on August 21, 2014 (GMT -0700)
View Park-Windsor Hills | Change Station
CLOSE
Current Station
Personal Weather Station
Location: Los Angeles, CA
Elevation: 328 ft
Nearby Weather Stations
Active Advisory: Beach Hazard Statement

Elev 328 ft 34.00 °N, 118.35 °W | Updated 7 minutes ago

Clear
Clear
69.1 °F
Feels Like 69.1 °F
N
0.0
Wind Variable Wind from SW
Gusts 6.0 mph

Today
High -- | Low -- °F
--% Chance of Precip.
Yesterday
High -- | Low -- °F
Precip. -- in
6:18 AM 7:32 PM
Waning Crescent, 11% visible
Pressure 29.90 in
Visibility 10.0 miles
Clouds Clear
Dew Point 63 °F
Humidity 82%
Rainfall 0.00 in
Snow Depth Not available.
UV 0 out of 12
Pollen 5.40 out of 12
Ozone Good
Flu Activity Not available.
METAR KCQT 220247Z AUTO 27005KT 10SM CLR 22/16 A2991 RMK AO2 SLP124 T02170161 53007

More Conditions Fewer Conditions

Pressure 29.90 in
Visibility 10.0 miles
Clouds Clear
Dew Point 63 °F
Humidity 82%
Rainfall 0.00 in
Snow Depth Not available.
UV 0 out of 12
Pollen 5.40 out of 12
Ozone Good
Flu Activity Not available.
METAR KCQT 220247Z AUTO 27005KT 10SM CLR 22/16 A2991 RMK AO2 SLP124 T02170161 53007

More Conditions Fewer Conditions

10-Day Weather Forecast

Almanac

Astronomy

Aug. 21, 2014 Rise Set
Actual Time 6:18 AM PDT 7:32 PM PDT
Civil Twilight 5:52 AM PDT 7:58 PM PDT
Nautical Twilight 5:21 AM PDT 8:29 PM PDT
Astronomical Twilight 4:49 AM PDT 9:01 PM PDT
Moon 2:57 AM PDT (8/21) 5:00 PM PDT (8/21)
Length of Visible Light 14h 05m
Length of Day
13h 13m
Tomorrow will be 1m 55s shorter.
Waning Crescent, 11% of the Moon is Illuminated
Today
Waning Crescent
Aug 25
New
Sep 2
First Quarter
Sep 8
Full
Sep 15
Last Quarter

Today's Extremes

State Highs State Lows

Community

WunderPhotos

Upload Photos

1,746,112 photos uploaded!

WunderBlogs® & News

Nearby

Air Quality

  Air Quality AQ Index Pollutant
Current Good
OZONE
Friday Good
PM10
Friday Good
OZONE
Friday Good
CO
Friday Good
NO2

Snow Depth

Station Depth Elevation
Leavitt Meadows 1 in 7200 ft
Summit Meadow 0 in 9122 ft
Adin Mountain 0 in 6200 ft
Cedar Pass 0 in 7100 ft

Earthquake Activity

City Distance Mag. Time & Date
Malibu Beach, California 27 miles 3.4 10:03 AM PDT
2014-08-15
Yucca Valley, California 105 miles 3.8 8:57 PM PDT
2014-08-14
Minimum magnitude displayed is 2.5.

Coastal Water Temperatures

Place Temperature
Santa Monica Pier 72.0 °F
Los Angeles, CA 68.0 °F
La Jolla, CA 71.1 °F

Nearby Weather Stations